createdAt,value
2023-04-05T00:00:38.283Z,37.70
2023-04-05T00:03:06.010Z,38.10
2023-04-05T00:05:34.516Z,38.80
2023-04-05T00:08:02.539Z,39.40
2023-04-05T00:10:31.271Z,39.50
2023-04-05T00:12:58.996Z,40.00
2023-04-05T00:15:27.355Z,40.30
2023-04-05T00:17:55.002Z,40.60
2023-04-05T00:20:22.021Z,40.50
2023-04-05T00:22:50.905Z,40.00
2023-04-05T00:25:18.501Z,40.50
2023-04-05T00:27:45.923Z,41.20
2023-04-05T00:30:13.445Z,41.40
2023-04-05T00:32:40.393Z,41.60
2023-04-05T00:35:07.870Z,42.50
2023-04-05T00:37:34.849Z,42.40
2023-04-05T00:40:01.901Z,42.20
2023-04-05T00:42:28.930Z,42.90
2023-04-05T00:44:56.179Z,42.40
2023-04-05T00:47:23.563Z,42.50
2023-04-05T00:49:50.964Z,42.60
2023-04-05T00:52:19.693Z,42.80
2023-04-05T00:54:46.856Z,44.50
2023-04-05T00:57:15.096Z,44.30
2023-04-05T00:59:43.289Z,45.90
2023-04-05T01:02:32.449Z,46.60
2023-04-05T01:05:03.938Z,46.60
2023-04-05T01:07:46.472Z,47.40
2023-04-05T01:10:17.410Z,47.10
2023-04-05T01:12:45.048Z,48.10
2023-04-05T01:15:12.861Z,48.90
2023-04-05T01:17:42.154Z,49.20
2023-04-05T01:20:11.906Z,49.50
2023-04-05T01:23:01.037Z,50.00
2023-04-05T01:25:59.862Z,49.80
2023-04-05T01:28:57.685Z,49.20
2023-04-05T01:31:50.420Z,50.20
2023-04-05T01:34:45.595Z,50.70
2023-04-05T01:37:16.390Z,50.80
2023-04-05T01:39:43.536Z,51.40
2023-04-05T01:42:10.728Z,51.80
2023-04-05T01:44:37.635Z,52.30
2023-04-05T01:47:04.860Z,52.70
2023-04-05T01:49:31.777Z,53.00
2023-04-05T01:51:58.809Z,52.80
2023-04-05T01:54:27.800Z,53.30
2023-04-05T01:56:54.810Z,54.60
2023-04-05T01:59:21.938Z,55.10
2023-04-05T02:01:49.138Z,55.50
2023-04-05T02:04:15.995Z,55.30
2023-04-05T02:06:42.967Z,55.70
2023-04-05T02:09:10.003Z,54.50
2023-04-05T02:11:37.223Z,53.90
2023-04-05T02:14:04.291Z,54.20
2023-04-05T02:16:33.377Z,54.00
2023-04-05T02:19:00.541Z,53.80
2023-04-05T02:21:27.655Z,53.70
2023-04-05T02:23:54.720Z,53.30
2023-04-05T02:26:22.010Z,53.70
2023-04-05T02:28:48.948Z,53.70
2023-04-05T02:31:16.318Z,52.90
2023-04-05T02:33:43.321Z,54.80
2023-04-05T02:36:13.282Z,56.60
2023-04-05T02:38:41.009Z,56.60
2023-04-05T02:41:14.090Z,57.30
2023-04-05T02:43:41.147Z,57.80
2023-04-05T02:46:08.244Z,58.30
2023-04-05T02:48:40.133Z,61.10
2023-04-05T02:51:08.316Z,61.00
2023-04-05T02:53:35.612Z,65.40
2023-04-05T02:56:07.943Z,67.00
2023-04-05T02:58:41.096Z,65.40
2023-04-05T03:01:09.666Z,67.50
2023-04-05T03:03:37.493Z,70.40
2023-04-05T03:06:10.376Z,68.70
2023-04-05T03:08:49.221Z,68.60
2023-04-05T03:11:21.208Z,71.30
2023-04-05T03:13:52.298Z,72.10
2023-04-05T03:16:31.784Z,72.00
2023-04-05T03:19:05.498Z,72.50
2023-04-05T03:21:35.493Z,73.50
2023-04-05T03:24:10.133Z,74.20
2023-04-05T03:26:41.039Z,76.10
2023-04-05T03:29:09.548Z,76.80
2023-04-05T03:31:38.875Z,76.00
2023-04-05T03:34:09.101Z,76.70
2023-04-05T03:36:48.181Z,78.50
2023-04-05T03:39:26.549Z,77.50
2023-04-05T03:41:56.830Z,76.80
2023-04-05T03:44:23.836Z,77.20
2023-04-05T03:46:50.885Z,76.50
2023-04-05T03:49:17.883Z,77.30
2023-04-05T03:51:44.819Z,76.40
2023-04-05T03:54:12.536Z,75.00
2023-04-05T03:56:39.738Z,74.90
2023-04-05T03:59:14.144Z,75.00
2023-04-05T04:01:41.221Z,73.70
2023-04-05T04:04:08.794Z,73.00
2023-04-05T04:06:37.925Z,72.30
2023-04-05T04:09:05.951Z,71.90
2023-04-05T04:11:33.283Z,72.30
2023-04-05T04:14:03.665Z,73.40
2023-04-05T04:16:46.370Z,72.80
2023-04-05T04:19:22.569Z,71.30
2023-04-05T04:22:10.182Z,72.00
2023-04-05T04:25:04.751Z,71.50
2023-04-05T04:27:59.041Z,70.70
2023-04-05T04:30:49.091Z,69.90
2023-04-05T04:33:34.709Z,70.10
2023-04-05T04:36:18.274Z,70.00
2023-04-05T04:39:18.339Z,70.70
2023-04-05T04:41:56.496Z,71.30
2023-04-05T04:44:46.970Z,72.20
2023-04-05T04:47:22.898Z,72.20
2023-04-05T04:50:16.626Z,72.70
2023-04-05T04:52:43.577Z,73.70
2023-04-05T04:55:14.323Z,74.10
2023-04-05T04:57:42.557Z,73.90
2023-04-05T05:00:13.760Z,75.00
2023-04-05T05:02:42.535Z,76.00
2023-04-05T05:05:11.210Z,77.10
2023-04-05T05:07:41.772Z,76.50
2023-04-05T05:10:13.440Z,76.60
2023-04-05T05:12:40.687Z,74.10
2023-04-05T05:15:10.888Z,73.70
2023-04-05T05:17:39.381Z,73.20
2023-04-05T05:20:10.870Z,71.60
2023-04-05T05:22:38.797Z,72.10
2023-04-05T05:25:07.056Z,72.10
2023-04-05T05:27:34.126Z,71.10
2023-04-05T05:30:01.316Z,70.80
2023-04-05T05:32:28.418Z,70.10
2023-04-05T05:34:55.509Z,70.70
2023-04-05T05:37:33.030Z,71.50
2023-04-05T05:40:00.626Z,72.50
2023-04-05T05:42:27.783Z,72.10
2023-04-05T05:44:54.824Z,72.90
2023-04-05T05:47:21.923Z,73.70
2023-04-05T05:49:49.893Z,73.00
2023-04-05T05:52:16.967Z,72.90
2023-04-05T05:54:43.943Z,72.20
2023-04-05T05:57:10.963Z,70.90
2023-04-05T05:59:37.942Z,70.50
2023-04-05T06:02:05.490Z,70.20
2023-04-05T06:04:32.502Z,69.80
2023-04-05T06:06:59.399Z,70.00
2023-04-05T06:09:27.107Z,71.10
2023-04-05T06:11:56.856Z,71.30
2023-04-05T06:14:25.108Z,71.50
2023-04-05T06:16:52.310Z,69.60
2023-04-05T06:19:19.331Z,67.10
2023-04-05T06:21:46.322Z,66.00
2023-04-05T06:24:13.418Z,65.10
2023-04-05T06:26:41.805Z,62.50
2023-04-05T06:29:09.678Z,61.80
2023-04-05T06:31:38.250Z,60.60
2023-04-05T06:34:05.689Z,58.20
2023-04-05T06:36:34.388Z,56.80
2023-04-05T06:39:03.233Z,57.80
2023-04-05T06:41:30.736Z,57.90
2023-04-05T06:43:57.720Z,57.20
2023-04-05T06:46:24.978Z,55.70
2023-04-05T06:48:52.814Z,53.30
2023-04-05T06:51:20.940Z,51.60
2023-04-05T06:53:48.100Z,51.60
2023-04-05T06:56:14.985Z,49.80
2023-04-05T06:58:41.985Z,49.40
2023-04-05T07:01:09.092Z,48.40
2023-04-05T07:03:36.268Z,47.60
2023-04-05T07:06:04.332Z,45.20
2023-04-05T07:08:33.219Z,43.60
2023-04-05T07:11:00.855Z,42.40
2023-04-05T07:13:28.338Z,42.40
2023-04-05T07:16:02.831Z,43.00
2023-04-05T07:18:30.799Z,41.00
2023-04-05T07:21:03.904Z,39.00
2023-04-05T07:23:31.436Z,38.10
2023-04-05T07:26:05.611Z,37.20
2023-04-05T07:28:33.943Z,34.60
2023-04-05T07:31:01.644Z,35.00
2023-04-05T07:33:28.879Z,36.40
2023-04-05T07:35:57.247Z,35.90
2023-04-05T07:38:24.710Z,36.10
2023-04-05T07:40:52.122Z,36.10
2023-04-05T07:43:19.550Z,35.60
2023-04-05T07:45:46.667Z,34.90
2023-04-05T07:48:13.669Z,33.80
2023-04-05T07:50:41.385Z,34.70
2023-04-05T07:53:08.690Z,31.40
2023-04-05T07:55:38.855Z,31.70
2023-04-05T07:58:06.002Z,32.50
2023-04-05T08:00:32.944Z,30.90
2023-04-05T08:03:02.201Z,27.50
2023-04-05T08:05:29.753Z,26.10
2023-04-05T08:07:58.712Z,24.20
2023-04-05T08:10:26.205Z,23.40
2023-04-05T08:12:53.828Z,22.00
2023-04-05T08:15:21.358Z,21.30
2023-04-05T08:17:48.335Z,19.00
2023-04-05T08:20:15.772Z,17.80
2023-04-05T08:22:43.034Z,17.00
2023-04-05T08:25:10.543Z,13.10
2023-04-05T08:27:37.654Z,13.50
2023-04-05T08:30:06.064Z,12.30
2023-04-05T08:32:33.615Z,8.80
2023-04-05T08:35:00.646Z,5.30
2023-04-05T08:37:28.257Z,5.90
2023-04-05T08:39:55.286Z,3.70
2023-04-05T08:42:29.707Z,1.40
2023-04-05T08:44:58.027Z,3.90
2023-04-05T08:47:26.032Z,1.00
2023-04-05T08:49:53.056Z,1.00
2023-04-05T08:52:20.419Z,1.00
2023-04-05T08:54:49.035Z,1.00
2023-04-05T08:57:19.435Z,1.00
2023-04-05T08:59:46.858Z,1.00
2023-04-05T09:02:19.574Z,1.00
2023-04-05T09:04:49.570Z,1.00
2023-04-05T09:07:17.613Z,1.00
2023-04-05T09:09:48.660Z,1.00
2023-04-05T09:12:15.943Z,1.00
2023-04-05T09:14:45.156Z,1.00
2023-04-05T09:17:12.730Z,1.00
2023-04-05T09:19:39.786Z,1.00
2023-04-05T09:22:08.650Z,1.00
2023-04-05T09:24:43.495Z,1.00
2023-04-05T09:27:15.972Z,1.00
2023-04-05T09:29:47.092Z,1.00
2023-04-05T09:32:15.750Z,1.00
2023-04-05T09:34:43.637Z,1.00
2023-04-05T09:37:20.274Z,1.00
2023-04-05T09:39:52.349Z,1.00
2023-04-05T09:42:23.202Z,1.00
2023-04-05T09:44:51.596Z,1.00
2023-04-05T09:47:21.123Z,1.00
2023-04-05T09:49:52.736Z,1.00
2023-04-05T09:52:25.401Z,1.00
2023-04-05T09:54:56.659Z,1.00
2023-04-05T09:57:27.984Z,1.00
2023-04-05T09:59:55.359Z,1.00
2023-04-05T10:02:22.856Z,1.00
2023-04-05T10:04:50.842Z,1.00
2023-04-05T10:07:19.553Z,1.00
2023-04-05T10:09:49.194Z,1.00
2023-04-05T10:12:27.099Z,1.00
2023-04-05T10:14:57.559Z,1.00
2023-04-05T10:17:26.155Z,1.00
2023-04-05T10:20:18.020Z,1.00
2023-04-05T10:22:57.637Z,1.00
2023-04-05T10:25:30.778Z,1.00
2023-04-05T10:28:04.848Z,1.00
2023-04-05T10:30:37.793Z,1.00
2023-04-05T10:33:31.682Z,1.00
2023-04-05T10:36:13.356Z,1.00
2023-04-05T10:39:04.677Z,1.00
2023-04-05T10:41:36.974Z,1.00
2023-04-05T10:44:12.070Z,1.00
2023-04-05T10:46:48.101Z,1.00
2023-04-05T10:49:29.467Z,1.00
2023-04-05T10:51:57.439Z,1.00
2023-04-05T10:54:25.336Z,1.00
2023-04-05T10:56:56.598Z,1.00
2023-04-05T10:59:24.422Z,1.00
2023-04-05T11:01:53.471Z,1.00
2023-04-05T11:04:20.961Z,1.00
2023-04-05T11:06:48.378Z,1.00
2023-04-05T11:09:20.944Z,1.00
2023-04-05T11:11:50.155Z,1.00
2023-04-05T11:14:37.460Z,1.00
2023-04-05T11:17:05.028Z,1.00
2023-04-05T11:20:04.093Z,1.00
2023-04-05T11:22:33.338Z,1.00
2023-04-05T11:25:05.405Z,1.00
2023-04-05T11:27:34.606Z,1.00
2023-04-05T11:30:04.759Z,1.00
2023-04-05T11:32:44.538Z,1.00
2023-04-05T11:35:25.732Z,1.00
2023-04-05T11:38:04.041Z,1.00
2023-04-05T11:40:43.931Z,1.00
2023-04-05T11:43:12.982Z,1.00
2023-04-05T11:45:45.002Z,1.00
2023-04-05T11:48:15.429Z,1.00
2023-04-05T11:50:45.380Z,1.00
2023-04-05T11:53:14.978Z,1.00
2023-04-05T11:55:53.034Z,1.00
2023-04-05T11:58:23.247Z,1.00
2023-04-05T12:01:02.092Z,1.00
2023-04-05T12:03:33.119Z,1.00
2023-04-05T12:06:05.046Z,1.00
2023-04-05T12:08:55.781Z,1.00
2023-04-05T12:11:32.044Z,1.00
2023-04-05T12:14:01.418Z,1.00
2023-04-05T12:16:31.754Z,1.00
2023-04-05T12:19:02.276Z,1.00
2023-04-05T12:21:29.568Z,1.00
2023-04-05T12:23:58.410Z,1.00
2023-04-05T12:26:31.757Z,1.00
2023-04-05T12:29:05.502Z,1.00
2023-04-05T12:31:45.190Z,1.00
2023-04-05T12:34:14.005Z,1.00
2023-04-05T12:36:48.595Z,1.00
2023-04-05T12:39:17.973Z,1.00
2023-04-05T12:41:46.066Z,1.00
2023-04-05T12:44:19.945Z,1.00
2023-04-05T12:46:48.489Z,1.00
2023-04-05T12:49:19.164Z,1.00
2023-04-05T12:51:48.304Z,1.00
2023-04-05T12:54:24.613Z,1.00
2023-04-05T12:56:53.399Z,1.00
2023-04-05T12:59:24.099Z,1.00
2023-04-05T13:01:51.613Z,1.00
2023-04-05T13:04:19.249Z,1.00
2023-04-05T13:06:49.680Z,1.00
2023-04-05T13:09:17.678Z,1.00
2023-04-05T13:11:47.806Z,1.00
2023-04-05T13:14:14.968Z,1.00
2023-04-05T13:16:42.358Z,1.00
2023-04-05T13:19:10.382Z,1.00
2023-04-05T13:21:37.429Z,1.00
2023-04-05T13:24:04.776Z,1.00
2023-04-05T13:26:31.925Z,1.00
2023-04-05T13:29:00.158Z,1.00
2023-04-05T13:31:27.594Z,1.00
2023-04-05T13:33:54.899Z,1.00
2023-04-05T13:36:21.969Z,1.00
2023-04-05T13:38:54.642Z,1.00
2023-04-05T13:41:21.974Z,1.00
2023-04-05T13:43:49.421Z,1.00
2023-04-05T13:46:17.044Z,1.00
2023-04-05T13:48:45.644Z,1.00
2023-04-05T13:51:15.795Z,1.00
2023-04-05T13:53:42.803Z,1.00
2023-04-05T13:56:12.147Z,1.00
2023-04-05T13:58:40.537Z,1.00
2023-04-05T14:01:07.523Z,1.00
2023-04-05T14:03:34.870Z,1.00
2023-04-05T14:06:02.105Z,1.00
2023-04-05T14:08:29.346Z,1.00
2023-04-05T14:11:01.002Z,1.00
2023-04-05T14:13:28.084Z,1.00
2023-04-05T14:15:55.155Z,1.00
2023-04-05T14:18:22.281Z,1.00
2023-04-05T14:20:49.527Z,1.00
2023-04-05T14:23:16.492Z,1.00
2023-04-05T14:25:43.499Z,1.00
2023-04-05T14:28:13.219Z,1.00
2023-04-05T14:30:40.701Z,1.00
2023-04-05T14:33:08.077Z,1.00
2023-04-05T14:35:35.514Z,1.00
2023-04-05T14:38:03.765Z,1.00
2023-04-05T14:40:30.925Z,1.00
2023-04-05T14:42:58.277Z,1.00
2023-04-05T14:45:28.728Z,1.00
2023-04-05T14:47:56.082Z,1.00
2023-04-05T14:50:23.232Z,1.00
2023-04-05T14:52:50.321Z,1.00
2023-04-05T14:55:17.389Z,1.00
2023-04-05T14:57:44.945Z,1.00
2023-04-05T15:00:12.870Z,1.00
2023-04-05T15:02:40.271Z,1.00
2023-04-05T15:05:07.923Z,1.00
2023-04-05T15:07:34.929Z,1.00
2023-04-05T15:10:02.155Z,1.00
2023-04-05T15:12:29.752Z,1.00
2023-04-05T15:15:00.484Z,1.00
2023-04-05T15:17:29.349Z,1.00
2023-04-05T15:19:56.364Z,1.00
2023-04-05T15:22:23.821Z,1.00
2023-04-05T15:24:50.878Z,1.00
2023-04-05T15:27:18.952Z,1.00
2023-04-05T15:29:46.291Z,1.00
2023-04-05T15:32:13.415Z,1.00
2023-04-05T15:34:41.314Z,1.00
2023-04-05T15:37:08.365Z,1.00
2023-04-05T15:39:35.505Z,1.00
2023-04-05T15:42:03.241Z,1.00
2023-04-05T15:44:30.941Z,1.00
2023-04-05T15:46:57.981Z,1.00
2023-04-05T15:49:25.040Z,1.00
2023-04-05T15:51:52.078Z,1.00
2023-04-05T15:54:20.873Z,1.00
2023-04-05T15:56:48.347Z,1.00
2023-04-05T15:59:15.518Z,1.00
2023-04-05T16:01:43.557Z,1.00
2023-04-05T16:04:11.098Z,1.00
2023-04-05T16:06:38.204Z,1.00
2023-04-05T16:09:05.395Z,1.00
2023-04-05T16:11:32.452Z,1.00
2023-04-05T16:13:59.829Z,1.00
2023-04-05T16:16:41.730Z,1.00
2023-04-05T16:19:15.173Z,1.00
2023-04-05T16:21:44.037Z,1.00
2023-04-05T16:24:11.279Z,1.00
2023-04-05T16:26:38.286Z,1.00
2023-04-05T16:29:05.371Z,1.00
2023-04-05T16:31:32.884Z,1.00
2023-04-05T16:34:01.325Z,1.00
2023-04-05T16:36:28.674Z,1.00
2023-04-05T16:38:55.723Z,1.00
2023-04-05T16:41:23.132Z,1.00
2023-04-05T16:43:52.154Z,1.00
2023-04-05T16:46:19.377Z,1.00
2023-04-05T16:48:46.984Z,1.00
2023-04-05T16:51:16.420Z,1.00
2023-04-05T16:53:43.939Z,1.00
2023-04-05T16:56:10.948Z,1.00
2023-04-05T16:58:37.980Z,1.00
2023-04-05T17:01:05.039Z,1.00
2023-04-05T17:03:32.127Z,1.00
2023-04-05T17:05:59.334Z,1.00
2023-04-05T17:08:27.338Z,1.00
2023-04-05T17:10:54.257Z,1.00
2023-04-05T17:13:22.037Z,1.00
2023-04-05T17:15:49.331Z,1.00
2023-04-05T17:18:16.648Z,1.00
2023-04-05T17:20:43.618Z,1.00
2023-04-05T17:23:10.712Z,1.00
2023-04-05T17:25:37.783Z,1.00
2023-04-05T17:28:06.990Z,1.00
2023-04-05T17:30:34.058Z,1.00
2023-04-05T17:33:01.376Z,1.00
2023-04-05T17:35:29.416Z,1.00
2023-04-05T17:37:57.397Z,1.00
2023-04-05T17:40:24.518Z,1.00
2023-04-05T17:42:51.621Z,1.00
2023-04-05T17:45:19.079Z,1.00
2023-04-05T17:47:46.581Z,1.00
2023-04-05T17:50:15.500Z,1.00
2023-04-05T17:52:43.291Z,1.00
2023-04-05T17:55:10.522Z,1.00
2023-04-05T17:57:38.127Z,1.00
2023-04-05T18:00:05.899Z,1.00
2023-04-05T18:02:37.996Z,1.00
2023-04-05T18:05:05.463Z,1.00
2023-04-05T18:07:37.029Z,1.00
2023-04-05T18:10:07.990Z,1.00
2023-04-05T18:12:35.156Z,1.00
2023-04-05T18:15:02.239Z,1.00
2023-04-05T18:17:30.521Z,1.00
2023-04-05T18:19:57.729Z,1.00
2023-04-05T18:22:24.873Z,1.00
2023-04-05T18:24:51.962Z,1.00
2023-04-05T18:27:19.114Z,1.00
2023-04-05T18:29:46.838Z,1.00
2023-04-05T18:32:14.380Z,1.00
2023-04-05T18:34:41.796Z,1.00
2023-04-05T18:37:08.795Z,1.00
2023-04-05T18:39:35.877Z,1.00
2023-04-05T18:42:03.234Z,1.00
2023-04-05T18:44:30.696Z,1.00
2023-04-05T18:46:58.785Z,1.00
2023-04-05T18:49:26.016Z,1.00
2023-04-05T18:51:53.316Z,1.00
2023-04-05T18:54:20.343Z,1.00
2023-04-05T18:56:47.425Z,1.00
2023-04-05T18:59:14.581Z,1.00
2023-04-05T19:01:41.848Z,1.00
2023-04-05T19:04:08.959Z,1.00
2023-04-05T19:06:37.222Z,1.00
2023-04-05T19:09:06.369Z,1.00
2023-04-05T19:11:33.782Z,1.00
2023-04-05T19:14:03.680Z,1.00
2023-04-05T19:16:31.174Z,1.00
2023-04-05T19:19:01.104Z,1.00
2023-04-05T19:21:28.509Z,1.00
2023-04-05T19:23:58.453Z,1.00
2023-04-05T19:26:26.203Z,1.00
2023-04-05T19:28:53.481Z,1.00
2023-04-05T19:31:20.621Z,1.00
2023-04-05T19:33:47.794Z,1.00
2023-04-05T19:36:15.139Z,1.00
2023-04-05T19:38:42.243Z,1.00
2023-04-05T19:41:09.297Z,1.00
2023-04-05T19:43:36.966Z,1.00
2023-04-05T19:46:10.496Z,1.00
2023-04-05T19:48:39.926Z,1.00
2023-04-05T19:51:14.916Z,1.00
2023-04-05T19:53:42.945Z,1.00
2023-04-05T19:56:21.791Z,1.00
2023-04-05T19:59:01.264Z,1.00
2023-04-05T20:01:39.356Z,1.00
2023-04-05T20:04:19.472Z,1.00
2023-04-05T20:06:57.586Z,1.00
2023-04-05T20:09:30.362Z,1.00
2023-04-05T20:12:00.486Z,1.00
2023-04-05T20:14:42.445Z,1.00
2023-04-05T20:17:12.620Z,1.00
2023-04-05T20:19:56.959Z,1.00
2023-04-05T20:22:27.280Z,1.00
2023-04-05T20:24:54.561Z,1.00
2023-04-05T20:27:22.133Z,1.00
2023-04-05T20:29:51.687Z,1.00
2023-04-05T20:32:19.088Z,1.00
2023-04-05T20:34:46.197Z,1.00
2023-04-05T20:37:13.980Z,1.00
2023-04-05T20:39:43.286Z,1.00
2023-04-05T20:42:11.591Z,1.00
2023-04-05T20:44:38.633Z,1.00
2023-04-05T20:47:07.001Z,1.00
2023-04-05T20:49:34.466Z,1.00
2023-04-05T20:52:07.608Z,1.00
2023-04-05T20:54:36.599Z,1.00
2023-04-05T20:57:04.908Z,1.00
2023-04-05T20:59:32.152Z,1.00
2023-04-05T21:02:00.647Z,1.00
2023-04-05T21:04:29.953Z,1.00
2023-04-05T21:06:57.503Z,1.00
2023-04-05T21:09:25.700Z,1.00
2023-04-05T21:11:53.751Z,1.00
2023-04-05T21:14:21.543Z,1.00
2023-04-05T21:16:50.960Z,1.00
2023-04-05T21:19:20.251Z,1.00
2023-04-05T21:21:47.667Z,1.00
2023-04-05T21:24:14.792Z,1.00
2023-04-05T21:26:44.729Z,1.00
2023-04-05T21:29:11.945Z,1.00
2023-04-05T21:31:41.965Z,1.00
2023-04-05T21:34:10.503Z,1.00
2023-04-05T21:36:39.960Z,1.00
2023-04-05T21:39:09.201Z,1.00
2023-04-05T21:41:36.326Z,1.00
2023-04-05T21:44:03.353Z,1.00
2023-04-05T21:46:31.543Z,1.00
2023-04-05T21:49:01.642Z,1.00
2023-04-05T21:51:28.665Z,1.00
2023-04-05T21:53:55.785Z,1.00
2023-04-05T21:56:23.193Z,1.00
2023-04-05T21:58:50.465Z,1.00
2023-04-05T22:01:17.768Z,1.00
2023-04-05T22:03:44.864Z,1.00
2023-04-05T22:06:12.366Z,1.00
2023-04-05T22:08:43.684Z,1.00
2023-04-05T22:11:10.711Z,1.00
2023-04-05T22:13:39.034Z,1.00
2023-04-05T22:16:06.491Z,1.00
2023-04-05T22:18:33.689Z,1.00
2023-04-05T22:21:00.758Z,1.00
2023-04-05T22:23:27.715Z,1.00
2023-04-05T22:25:54.793Z,1.00
2023-04-05T22:28:21.874Z,1.00
2023-04-05T22:30:49.333Z,1.00
2023-04-05T22:33:16.344Z,1.00
2023-04-05T22:35:43.761Z,1.00
2023-04-05T22:38:10.956Z,1.30
2023-04-05T22:40:38.598Z,1.30
2023-04-05T22:43:06.108Z,1.00
2023-04-05T22:45:35.075Z,1.60
2023-04-05T22:48:02.155Z,1.20
2023-04-05T22:50:29.211Z,1.20
2023-04-05T22:52:56.301Z,1.00
2023-04-05T22:55:23.592Z,1.00
2023-04-05T22:57:51.388Z,1.20
2023-04-05T23:00:18.796Z,1.60
2023-04-05T23:02:45.845Z,1.60
2023-04-05T23:05:13.143Z,1.50
2023-04-05T23:07:40.215Z,2.00
2023-04-05T23:10:07.588Z,2.70
2023-04-05T23:12:34.546Z,2.00
2023-04-05T23:15:01.554Z,1.00
2023-04-05T23:17:28.618Z,1.00
2023-04-05T23:19:56.183Z,1.00
2023-04-05T23:22:23.323Z,1.00
2023-04-05T23:24:52.861Z,1.00
2023-04-05T23:27:20.131Z,1.00
2023-04-05T23:29:47.356Z,1.00
2023-04-05T23:32:14.285Z,1.00
2023-04-05T23:34:41.488Z,1.00
2023-04-05T23:37:09.564Z,1.00
2023-04-05T23:39:36.940Z,1.00
2023-04-05T23:42:04.986Z,1.00
2023-04-05T23:44:32.041Z,1.00
2023-04-05T23:46:59.176Z,1.00
2023-04-05T23:49:29.106Z,1.00
2023-04-05T23:51:56.336Z,1.00
2023-04-05T23:54:23.357Z,1.00
2023-04-05T23:56:51.197Z,1.00
2023-04-05T23:59:18.508Z,1.00
